sensor_id;sensor_type;location;lat;lon;timestamp;P1;durP1;ratioP1;P2;durP2;ratioP2
8500;SDS011;4288;48.484;10.024;2023-02-10T00:00:23;30.27;;;11.90;;
8500;SDS011;4288;48.484;10.024;2023-02-10T00:02:50;27.63;;;11.07;;
8500;SDS011;4288;48.484;10.024;2023-02-10T00:05:17;28.50;;;10.70;;
8500;SDS011;4288;48.484;10.024;2023-02-10T00:07:44;28.60;;;10.90;;
8500;SDS011;4288;48.484;10.024;2023-02-10T00:10:11;23.30;;;11.00;;
8500;SDS011;4288;48.484;10.024;2023-02-10T00:12:39;27.10;;;11.07;;
8500;SDS011;4288;48.484;10.024;2023-02-10T00:15:08;30.07;;;11.30;;
8500;SDS011;4288;48.484;10.024;2023-02-10T00:17:35;21.93;;;9.67;;
8500;SDS011;4288;48.484;10.024;2023-02-10T00:20:02;26.70;;;10.60;;
8500;SDS011;4288;48.484;10.024;2023-02-10T00:22:29;31.77;;;12.50;;
8500;SDS011;4288;48.484;10.024;2023-02-10T00:24:56;37.47;;;11.37;;
8500;SDS011;4288;48.484;10.024;2023-02-10T00:27:23;33.23;;;13.90;;
8500;SDS011;4288;48.484;10.024;2023-02-10T00:29:51;33.40;;;14.57;;
8500;SDS011;4288;48.484;10.024;2023-02-10T00:32:19;31.37;;;14.27;;
8500;SDS011;4288;48.484;10.024;2023-02-10T00:34:46;40.37;;;14.97;;
8500;SDS011;4288;48.484;10.024;2023-02-10T00:37:13;38.13;;;14.40;;
8500;SDS011;4288;48.484;10.024;2023-02-10T00:39:40;29.07;;;11.77;;
8500;SDS011;4288;48.484;10.024;2023-02-10T00:42:08;29.53;;;12.13;;
8500;SDS011;4288;48.484;10.024;2023-02-10T00:44:35;31.60;;;13.13;;
8500;SDS011;4288;48.484;10.024;2023-02-10T00:47:02;31.93;;;13.70;;
8500;SDS011;4288;48.484;10.024;2023-02-10T00:49:31;33.90;;;14.90;;
8500;SDS011;4288;48.484;10.024;2023-02-10T00:51:58;25.67;;;12.60;;
8500;SDS011;4288;48.484;10.024;2023-02-10T00:54:25;39.33;;;13.10;;
8500;SDS011;4288;48.484;10.024;2023-02-10T00:56:52;30.70;;;12.50;;
8500;SDS011;4288;48.484;10.024;2023-02-10T00:59:19;32.33;;;11.60;;
8500;SDS011;4288;48.484;10.024;2023-02-10T01:01:46;24.13;;;11.17;;
8500;SDS011;4288;48.484;10.024;2023-02-10T01:04:13;27.80;;;10.83;;
8500;SDS011;4288;48.484;10.024;2023-02-10T01:06:42;25.43;;;11.37;;
8500;SDS011;4288;48.484;10.024;2023-02-10T01:09:09;30.73;;;11.97;;
8500;SDS011;4288;48.484;10.024;2023-02-10T01:11:36;33.47;;;11.87;;
8500;SDS011;4288;48.484;10.024;2023-02-10T01:14:04;32.13;;;11.87;;
8500;SDS011;4288;48.484;10.024;2023-02-10T01:16:31;27.50;;;10.87;;
8500;SDS011;4288;48.484;10.024;2023-02-10T01:18:58;32.60;;;12.30;;
8500;SDS011;4288;48.484;10.024;2023-02-10T01:21:26;21.47;;;10.10;;
8500;SDS011;4288;48.484;10.024;2023-02-10T01:23:57;30.10;;;11.07;;
8500;SDS011;4288;48.484;10.024;2023-02-10T01:26:25;33.70;;;12.63;;
8500;SDS011;4288;48.484;10.024;2023-02-10T01:28:52;34.17;;;11.73;;
8500;SDS011;4288;48.484;10.024;2023-02-10T01:31:20;24.93;;;9.13;;
8500;SDS011;4288;48.484;10.024;2023-02-10T01:33:50;24.83;;;11.17;;
8500;SDS011;4288;48.484;10.024;2023-02-10T01:36:19;25.10;;;10.37;;
8500;SDS011;4288;48.484;10.024;2023-02-10T01:38:49;25.70;;;10.97;;
8500;SDS011;4288;48.484;10.024;2023-02-10T01:41:19;39.97;;;11.50;;
8500;SDS011;4288;48.484;10.024;2023-02-10T01:43:56;23.30;;;9.70;;
8500;SDS011;4288;48.484;10.024;2023-02-10T01:46:26;28.67;;;11.33;;
8500;SDS011;4288;48.484;10.024;2023-02-10T01:48:55;33.20;;;12.13;;
8500;SDS011;4288;48.484;10.024;2023-02-10T01:51:28;32.13;;;12.10;;
8500;SDS011;4288;48.484;10.024;2023-02-10T01:54:03;29.20;;;10.23;;
8500;SDS011;4288;48.484;10.024;2023-02-10T01:56:34;34.77;;;11.30;;
8500;SDS011;4288;48.484;10.024;2023-02-10T01:59:01;29.30;;;10.73;;
8500;SDS011;4288;48.484;10.024;2023-02-10T02:01:29;28.67;;;12.53;;
8500;SDS011;4288;48.484;10.024;2023-02-10T02:03:56;29.93;;;12.07;;
8500;SDS011;4288;48.484;10.024;2023-02-10T02:06:24;30.03;;;12.50;;
8500;SDS011;4288;48.484;10.024;2023-02-10T02:08:51;23.50;;;10.70;;
8500;SDS011;4288;48.484;10.024;2023-02-10T02:11:20;23.40;;;9.07;;
8500;SDS011;4288;48.484;10.024;2023-02-10T02:13:59;25.70;;;10.97;;
8500;SDS011;4288;48.484;10.024;2023-02-10T02:16:53;30.17;;;11.50;;
8500;SDS011;4288;48.484;10.024;2023-02-10T02:19:38;24.63;;;10.00;;
8500;SDS011;4288;48.484;10.024;2023-02-10T02:23:07;25.33;;;11.37;;
8500;SDS011;4288;48.484;10.024;2023-02-10T02:29:05;25.90;;;10.70;;
8500;SDS011;4288;48.484;10.024;2023-02-10T02:32:00;24.57;;;9.63;;
8500;SDS011;4288;48.484;10.024;2023-02-10T02:34:33;26.23;;;10.10;;
8500;SDS011;4288;48.484;10.024;2023-02-10T02:37:08;28.70;;;12.00;;
8500;SDS011;4288;48.484;10.024;2023-02-10T02:39:41;30.10;;;10.30;;
8500;SDS011;4288;48.484;10.024;2023-02-10T02:42:16;30.53;;;10.73;;
8500;SDS011;4288;48.484;10.024;2023-02-10T02:44:47;20.37;;;9.43;;
8500;SDS011;4288;48.484;10.024;2023-02-10T02:47:24;27.77;;;9.80;;
8500;SDS011;4288;48.484;10.024;2023-02-10T02:50:12;27.10;;;12.57;;
8500;SDS011;4288;48.484;10.024;2023-02-10T02:52:58;29.47;;;11.00;;
8500;SDS011;4288;48.484;10.024;2023-02-10T02:55:47;36.90;;;13.03;;
8500;SDS011;4288;48.484;10.024;2023-02-10T02:58:26;28.47;;;9.80;;
8500;SDS011;4288;48.484;10.024;2023-02-10T03:01:00;23.80;;;9.97;;
8500;SDS011;4288;48.484;10.024;2023-02-10T03:03:33;30.53;;;11.00;;
8500;SDS011;4288;48.484;10.024;2023-02-10T03:06:02;37.40;;;13.60;;
8500;SDS011;4288;48.484;10.024;2023-02-10T03:08:31;30.20;;;11.40;;
8500;SDS011;4288;48.484;10.024;2023-02-10T03:11:02;24.37;;;10.40;;
8500;SDS011;4288;48.484;10.024;2023-02-10T03:13:30;32.03;;;10.40;;
8500;SDS011;4288;48.484;10.024;2023-02-10T03:15:57;26.40;;;11.67;;
8500;SDS011;4288;48.484;10.024;2023-02-10T03:18:24;25.97;;;10.80;;
8500;SDS011;4288;48.484;10.024;2023-02-10T03:20:53;28.40;;;10.97;;
8500;SDS011;4288;48.484;10.024;2023-02-10T03:23:20;33.37;;;12.83;;
8500;SDS011;4288;48.484;10.024;2023-02-10T03:25:47;30.57;;;13.10;;
8500;SDS011;4288;48.484;10.024;2023-02-10T03:28:15;34.57;;;10.90;;
8500;SDS011;4288;48.484;10.024;2023-02-10T03:30:42;29.27;;;13.17;;
8500;SDS011;4288;48.484;10.024;2023-02-10T03:33:12;33.37;;;12.13;;
8500;SDS011;4288;48.484;10.024;2023-02-10T03:35:39;31.40;;;12.23;;
8500;SDS011;4288;48.484;10.024;2023-02-10T03:38:09;23.37;;;9.80;;
8500;SDS011;4288;48.484;10.024;2023-02-10T03:40:36;25.90;;;9.50;;
8500;SDS011;4288;48.484;10.024;2023-02-10T03:43:03;28.63;;;10.73;;
8500;SDS011;4288;48.484;10.024;2023-02-10T03:45:31;28.30;;;10.73;;
8500;SDS011;4288;48.484;10.024;2023-02-10T03:47:58;25.10;;;10.90;;
8500;SDS011;4288;48.484;10.024;2023-02-10T03:50:25;27.43;;;10.47;;
8500;SDS011;4288;48.484;10.024;2023-02-10T03:52:52;27.83;;;10.33;;
8500;SDS011;4288;48.484;10.024;2023-02-10T03:55:20;32.33;;;12.17;;
8500;SDS011;4288;48.484;10.024;2023-02-10T03:57:48;36.07;;;13.20;;
8500;SDS011;4288;48.484;10.024;2023-02-10T04:00:15;31.47;;;10.97;;
8500;SDS011;4288;48.484;10.024;2023-02-10T04:02:42;27.57;;;10.73;;
8500;SDS011;4288;48.484;10.024;2023-02-10T04:05:09;31.57;;;10.60;;
8500;SDS011;4288;48.484;10.024;2023-02-10T04:07:37;33.03;;;11.47;;
8500;SDS011;4288;48.484;10.024;2023-02-10T04:10:04;26.77;;;12.10;;
8500;SDS011;4288;48.484;10.024;2023-02-10T04:12:34;30.50;;;11.10;;
8500;SDS011;4288;48.484;10.024;2023-02-10T04:15:01;24.83;;;11.30;;
8500;SDS011;4288;48.484;10.024;2023-02-10T04:17:29;29.63;;;10.73;;
8500;SDS011;4288;48.484;10.024;2023-02-10T04:19:56;26.10;;;10.43;;
8500;SDS011;4288;48.484;10.024;2023-02-10T04:22:23;34.23;;;12.67;;
8500;SDS011;4288;48.484;10.024;2023-02-10T04:24:50;34.93;;;11.73;;
8500;SDS011;4288;48.484;10.024;2023-02-10T04:27:17;27.50;;;11.30;;
8500;SDS011;4288;48.484;10.024;2023-02-10T04:29:45;26.90;;;10.93;;
8500;SDS011;4288;48.484;10.024;2023-02-10T04:32:12;28.50;;;10.50;;
8500;SDS011;4288;48.484;10.024;2023-02-10T04:34:39;30.13;;;11.10;;
8500;SDS011;4288;48.484;10.024;2023-02-10T04:37:06;24.57;;;10.20;;
8500;SDS011;4288;48.484;10.024;2023-02-10T04:39:34;28.20;;;11.37;;
8500;SDS011;4288;48.484;10.024;2023-02-10T04:42:01;26.90;;;10.90;;
8500;SDS011;4288;48.484;10.024;2023-02-10T04:44:28;32.80;;;11.67;;
8500;SDS011;4288;48.484;10.024;2023-02-10T04:46:57;31.60;;;11.67;;
8500;SDS011;4288;48.484;10.024;2023-02-10T04:49:24;41.50;;;12.80;;
8500;SDS011;4288;48.484;10.024;2023-02-10T04:51:51;26.53;;;11.47;;
8500;SDS011;4288;48.484;10.024;2023-02-10T04:54:19;29.00;;;10.40;;
8500;SDS011;4288;48.484;10.024;2023-02-10T04:56:46;27.27;;;10.53;;
8500;SDS011;4288;48.484;10.024;2023-02-10T04:59:14;34.43;;;12.80;;
8500;SDS011;4288;48.484;10.024;2023-02-10T05:01:41;37.57;;;12.60;;
8500;SDS011;4288;48.484;10.024;2023-02-10T05:04:09;28.43;;;12.20;;
8500;SDS011;4288;48.484;10.024;2023-02-10T05:06:36;35.97;;;13.07;;
8500;SDS011;4288;48.484;10.024;2023-02-10T05:09:03;29.23;;;12.20;;
8500;SDS011;4288;48.484;10.024;2023-02-10T05:11:31;27.10;;;12.30;;
8500;SDS011;4288;48.484;10.024;2023-02-10T05:13:58;27.90;;;11.30;;
8500;SDS011;4288;48.484;10.024;2023-02-10T05:16:25;29.27;;;11.37;;
8500;SDS011;4288;48.484;10.024;2023-02-10T05:18:52;33.50;;;12.30;;
8500;SDS011;4288;48.484;10.024;2023-02-10T05:21:20;26.70;;;11.00;;
8500;SDS011;4288;48.484;10.024;2023-02-10T05:23:47;32.93;;;11.53;;
8500;SDS011;4288;48.484;10.024;2023-02-10T05:26:14;34.47;;;13.23;;
8500;SDS011;4288;48.484;10.024;2023-02-10T05:28:41;33.13;;;12.83;;
8500;SDS011;4288;48.484;10.024;2023-02-10T05:31:08;36.27;;;14.57;;
8500;SDS011;4288;48.484;10.024;2023-02-10T05:33:35;43.73;;;14.60;;
8500;SDS011;4288;48.484;10.024;2023-02-10T05:36:03;33.30;;;11.60;;
8500;SDS011;4288;48.484;10.024;2023-02-10T05:38:32;30.53;;;12.07;;
8500;SDS011;4288;48.484;10.024;2023-02-10T05:40:59;37.23;;;11.40;;
8500;SDS011;4288;48.484;10.024;2023-02-10T05:43:26;24.53;;;10.63;;
8500;SDS011;4288;48.484;10.024;2023-02-10T05:45:53;31.90;;;11.80;;
8500;SDS011;4288;48.484;10.024;2023-02-10T05:48:20;29.07;;;11.43;;
8500;SDS011;4288;48.484;10.024;2023-02-10T05:50:49;30.57;;;12.10;;
8500;SDS011;4288;48.484;10.024;2023-02-10T05:53:17;31.63;;;12.90;;
8500;SDS011;4288;48.484;10.024;2023-02-10T05:55:46;29.13;;;12.10;;
8500;SDS011;4288;48.484;10.024;2023-02-10T05:58:13;30.80;;;11.30;;
8500;SDS011;4288;48.484;10.024;2023-02-10T06:00:40;30.17;;;12.60;;
8500;SDS011;4288;48.484;10.024;2023-02-10T06:03:07;34.13;;;12.60;;
8500;SDS011;4288;48.484;10.024;2023-02-10T06:05:35;30.77;;;12.37;;
8500;SDS011;4288;48.484;10.024;2023-02-10T06:08:02;32.83;;;12.27;;
8500;SDS011;4288;48.484;10.024;2023-02-10T06:10:29;31.23;;;12.53;;
8500;SDS011;4288;48.484;10.024;2023-02-10T06:12:57;29.77;;;13.37;;
8500;SDS011;4288;48.484;10.024;2023-02-10T06:15:25;29.13;;;12.23;;
8500;SDS011;4288;48.484;10.024;2023-02-10T06:17:52;31.40;;;11.70;;
8500;SDS011;4288;48.484;10.024;2023-02-10T06:20:19;23.07;;;10.57;;
8500;SDS011;4288;48.484;10.024;2023-02-10T06:22:46;38.20;;;12.93;;
8500;SDS011;4288;48.484;10.024;2023-02-10T06:25:13;38.30;;;12.60;;
8500;SDS011;4288;48.484;10.024;2023-02-10T06:27:40;30.73;;;11.63;;
8500;SDS011;4288;48.484;10.024;2023-02-10T06:30:09;33.73;;;11.07;;
8500;SDS011;4288;48.484;10.024;2023-02-10T06:32:37;34.17;;;12.67;;
8500;SDS011;4288;48.484;10.024;2023-02-10T06:35:04;25.60;;;10.87;;
8500;SDS011;4288;48.484;10.024;2023-02-10T06:37:32;36.83;;;12.03;;
8500;SDS011;4288;48.484;10.024;2023-02-10T06:40:00;42.20;;;13.77;;
8500;SDS011;4288;48.484;10.024;2023-02-10T06:42:28;37.73;;;13.13;;
8500;SDS011;4288;48.484;10.024;2023-02-10T06:44:55;42.90;;;14.87;;
8500;SDS011;4288;48.484;10.024;2023-02-10T06:47:23;24.00;;;11.83;;
8500;SDS011;4288;48.484;10.024;2023-02-10T06:49:50;35.67;;;13.43;;
8500;SDS011;4288;48.484;10.024;2023-02-10T06:52:17;31.77;;;12.60;;
8500;SDS011;4288;48.484;10.024;2023-02-10T06:54:45;28.93;;;11.43;;
8500;SDS011;4288;48.484;10.024;2023-02-10T06:57:12;31.90;;;14.23;;
8500;SDS011;4288;48.484;10.024;2023-02-10T06:59:39;41.97;;;15.40;;
8500;SDS011;4288;48.484;10.024;2023-02-10T07:02:07;36.93;;;15.60;;
8500;SDS011;4288;48.484;10.024;2023-02-10T07:04:36;37.47;;;14.77;;
8500;SDS011;4288;48.484;10.024;2023-02-10T07:07:03;32.80;;;14.40;;
8500;SDS011;4288;48.484;10.024;2023-02-10T07:09:30;34.57;;;13.13;;
8500;SDS011;4288;48.484;10.024;2023-02-10T07:11:58;35.87;;;14.50;;
8500;SDS011;4288;48.484;10.024;2023-02-10T07:14:25;33.33;;;14.33;;
8500;SDS011;4288;48.484;10.024;2023-02-10T07:16:52;40.57;;;15.63;;
8500;SDS011;4288;48.484;10.024;2023-02-10T07:19:19;44.47;;;16.23;;
8500;SDS011;4288;48.484;10.024;2023-02-10T07:21:47;40.37;;;16.97;;
8500;SDS011;4288;48.484;10.024;2023-02-10T07:24:15;34.33;;;16.27;;
8500;SDS011;4288;48.484;10.024;2023-02-10T07:26:42;47.17;;;16.00;;
8500;SDS011;4288;48.484;10.024;2023-02-10T07:29:10;41.73;;;17.10;;
8500;SDS011;4288;48.484;10.024;2023-02-10T07:31:37;56.80;;;16.90;;
8500;SDS011;4288;48.484;10.024;2023-02-10T07:34:04;37.53;;;14.87;;
8500;SDS011;4288;48.484;10.024;2023-02-10T07:36:31;39.93;;;16.53;;
8500;SDS011;4288;48.484;10.024;2023-02-10T07:38:59;46.67;;;16.90;;
8500;SDS011;4288;48.484;10.024;2023-02-10T07:41:26;47.13;;;15.40;;
8500;SDS011;4288;48.484;10.024;2023-02-10T07:43:53;37.40;;;13.90;;
8500;SDS011;4288;48.484;10.024;2023-02-10T07:46:20;43.00;;;15.67;;
8500;SDS011;4288;48.484;10.024;2023-02-10T07:48:48;34.30;;;14.30;;
8500;SDS011;4288;48.484;10.024;2023-02-10T07:51:15;40.53;;;15.57;;
8500;SDS011;4288;48.484;10.024;2023-02-10T07:53:42;37.97;;;15.57;;
8500;SDS011;4288;48.484;10.024;2023-02-10T07:56:11;49.07;;;16.63;;
8500;SDS011;4288;48.484;10.024;2023-02-10T07:58:38;38.63;;;14.80;;
8500;SDS011;4288;48.484;10.024;2023-02-10T08:01:05;31.60;;;13.30;;
8500;SDS011;4288;48.484;10.024;2023-02-10T08:03:33;41.73;;;15.03;;
8500;SDS011;4288;48.484;10.024;2023-02-10T08:06:01;39.03;;;16.73;;
8500;SDS011;4288;48.484;10.024;2023-02-10T08:08:28;43.47;;;17.60;;
8500;SDS011;4288;48.484;10.024;2023-02-10T08:10:55;44.20;;;17.80;;
8500;SDS011;4288;48.484;10.024;2023-02-10T08:13:24;53.57;;;19.17;;
8500;SDS011;4288;48.484;10.024;2023-02-10T08:15:52;47.20;;;18.80;;
8500;SDS011;4288;48.484;10.024;2023-02-10T08:18:19;40.67;;;17.70;;
8500;SDS011;4288;48.484;10.024;2023-02-10T08:20:46;36.70;;;17.20;;
8500;SDS011;4288;48.484;10.024;2023-02-10T08:23:14;35.70;;;16.13;;
8500;SDS011;4288;48.484;10.024;2023-02-10T08:25:43;46.37;;;19.00;;
8500;SDS011;4288;48.484;10.024;2023-02-10T08:28:10;42.57;;;16.93;;
8500;SDS011;4288;48.484;10.024;2023-02-10T08:30:39;43.00;;;16.50;;
8500;SDS011;4288;48.484;10.024;2023-02-10T08:33:06;40.30;;;16.57;;
8500;SDS011;4288;48.484;10.024;2023-02-10T08:35:34;39.50;;;17.73;;
8500;SDS011;4288;48.484;10.024;2023-02-10T08:38:02;41.03;;;17.47;;
8500;SDS011;4288;48.484;10.024;2023-02-10T08:40:30;34.30;;;14.87;;
8500;SDS011;4288;48.484;10.024;2023-02-10T08:42:58;39.73;;;16.40;;
8500;SDS011;4288;48.484;10.024;2023-02-10T08:45:25;42.93;;;20.13;;
8500;SDS011;4288;48.484;10.024;2023-02-10T08:47:53;43.50;;;17.60;;
8500;SDS011;4288;48.484;10.024;2023-02-10T08:50:20;49.97;;;17.97;;
8500;SDS011;4288;48.484;10.024;2023-02-10T08:52:47;40.70;;;16.73;;
8500;SDS011;4288;48.484;10.024;2023-02-10T08:55:15;31.37;;;14.30;;
8500;SDS011;4288;48.484;10.024;2023-02-10T08:57:42;30.33;;;14.73;;
8500;SDS011;4288;48.484;10.024;2023-02-10T09:00:09;38.83;;;15.73;;
8500;SDS011;4288;48.484;10.024;2023-02-10T09:02:37;34.83;;;16.00;;
8500;SDS011;4288;48.484;10.024;2023-02-10T09:05:06;38.27;;;17.17;;
8500;SDS011;4288;48.484;10.024;2023-02-10T09:07:33;36.27;;;16.60;;
8500;SDS011;4288;48.484;10.024;2023-02-10T09:10:00;34.40;;;16.63;;
8500;SDS011;4288;48.484;10.024;2023-02-10T09:12:27;33.20;;;16.57;;
8500;SDS011;4288;48.484;10.024;2023-02-10T09:14:56;35.93;;;16.27;;
8500;SDS011;4288;48.484;10.024;2023-02-10T09:17:24;32.50;;;16.47;;
8500;SDS011;4288;48.484;10.024;2023-02-10T09:19:51;33.87;;;17.53;;
8500;SDS011;4288;48.484;10.024;2023-02-10T09:22:19;33.17;;;16.17;;
8500;SDS011;4288;48.484;10.024;2023-02-10T09:24:47;36.57;;;15.17;;
8500;SDS011;4288;48.484;10.024;2023-02-10T09:27:17;31.10;;;14.80;;
8500;SDS011;4288;48.484;10.024;2023-02-10T09:29:44;36.00;;;16.60;;
8500;SDS011;4288;48.484;10.024;2023-02-10T09:32:11;31.97;;;15.03;;
8500;SDS011;4288;48.484;10.024;2023-02-10T09:34:39;31.10;;;14.13;;
8500;SDS011;4288;48.484;10.024;2023-02-10T09:37:08;32.00;;;15.60;;
8500;SDS011;4288;48.484;10.024;2023-02-10T09:39:36;33.37;;;16.53;;
8500;SDS011;4288;48.484;10.024;2023-02-10T09:42:07;30.37;;;15.07;;
8500;SDS011;4288;48.484;10.024;2023-02-10T09:44:45;32.23;;;16.10;;
8500;SDS011;4288;48.484;10.024;2023-02-10T09:47:25;36.30;;;18.03;;
8500;SDS011;4288;48.484;10.024;2023-02-10T09:50:14;26.90;;;15.23;;
8500;SDS011;4288;48.484;10.024;2023-02-10T09:53:07;35.40;;;15.80;;
8500;SDS011;4288;48.484;10.024;2023-02-10T09:55:40;34.73;;;15.57;;
8500;SDS011;4288;48.484;10.024;2023-02-10T09:58:19;34.47;;;17.90;;
8500;SDS011;4288;48.484;10.024;2023-02-10T10:00:56;26.03;;;14.33;;
8500;SDS011;4288;48.484;10.024;2023-02-10T10:03:32;39.13;;;19.67;;
8500;SDS011;4288;48.484;10.024;2023-02-10T10:06:11;35.67;;;18.07;;
8500;SDS011;4288;48.484;10.024;2023-02-10T10:08:48;36.97;;;20.23;;
8500;SDS011;4288;48.484;10.024;2023-02-10T10:11:30;43.10;;;20.00;;
8500;SDS011;4288;48.484;10.024;2023-02-10T10:14:03;64.93;;;19.23;;
8500;SDS011;4288;48.484;10.024;2023-02-10T10:19:49;38.23;;;20.30;;
8500;SDS011;4288;48.484;10.024;2023-02-10T10:22:32;38.20;;;19.73;;
8500;SDS011;4288;48.484;10.024;2023-02-10T10:25:17;35.37;;;19.77;;
8500;SDS011;4288;48.484;10.024;2023-02-10T10:28:02;37.50;;;18.80;;
8500;SDS011;4288;48.484;10.024;2023-02-10T10:30:40;33.17;;;17.20;;
8500;SDS011;4288;48.484;10.024;2023-02-10T10:33:14;37.90;;;19.17;;
8500;SDS011;4288;48.484;10.024;2023-02-10T10:35:49;38.87;;;18.87;;
8500;SDS011;4288;48.484;10.024;2023-02-10T10:38:19;31.93;;;17.93;;
8500;SDS011;4288;48.484;10.024;2023-02-10T10:40:48;39.17;;;19.60;;
8500;SDS011;4288;48.484;10.024;2023-02-10T10:43:23;33.50;;;18.10;;
8500;SDS011;4288;48.484;10.024;2023-02-10T10:45:54;34.80;;;17.40;;
8500;SDS011;4288;48.484;10.024;2023-02-10T10:48:28;32.73;;;18.07;;
8500;SDS011;4288;48.484;10.024;2023-02-10T10:50:58;43.17;;;18.00;;
8500;SDS011;4288;48.484;10.024;2023-02-10T10:53:32;40.37;;;19.63;;
8500;SDS011;4288;48.484;10.024;2023-02-10T10:56:06;34.90;;;18.97;;
8500;SDS011;4288;48.484;10.024;2023-02-10T10:58:43;38.73;;;17.93;;
8500;SDS011;4288;48.484;10.024;2023-02-10T11:01:12;35.47;;;17.07;;
8500;SDS011;4288;48.484;10.024;2023-02-10T11:03:41;34.63;;;18.57;;
8500;SDS011;4288;48.484;10.024;2023-02-10T11:06:09;34.37;;;18.13;;
8500;SDS011;4288;48.484;10.024;2023-02-10T11:08:40;28.93;;;16.70;;
8500;SDS011;4288;48.484;10.024;2023-02-10T11:11:10;39.73;;;17.77;;
8500;SDS011;4288;48.484;10.024;2023-02-10T11:13:40;36.83;;;18.50;;
8500;SDS011;4288;48.484;10.024;2023-02-10T11:16:19;34.43;;;17.90;;
8500;SDS011;4288;48.484;10.024;2023-02-10T11:18:51;36.10;;;18.57;;
8500;SDS011;4288;48.484;10.024;2023-02-10T11:21:20;36.57;;;18.00;;
8500;SDS011;4288;48.484;10.024;2023-02-10T11:23:58;36.83;;;16.90;;
8500;SDS011;4288;48.484;10.024;2023-02-10T11:26:26;38.90;;;17.70;;
8500;SDS011;4288;48.484;10.024;2023-02-10T11:28:55;32.17;;;17.20;;
8500;SDS011;4288;48.484;10.024;2023-02-10T11:31:25;37.70;;;17.97;;
8500;SDS011;4288;48.484;10.024;2023-02-10T11:33:58;35.37;;;17.03;;
8500;SDS011;4288;48.484;10.024;2023-02-10T11:36:34;33.37;;;17.90;;
8500;SDS011;4288;48.484;10.024;2023-02-10T11:39:04;37.77;;;18.83;;
8500;SDS011;4288;48.484;10.024;2023-02-10T11:41:42;35.50;;;18.03;;
8500;SDS011;4288;48.484;10.024;2023-02-10T11:44:15;31.73;;;17.47;;
8500;SDS011;4288;48.484;10.024;2023-02-10T11:46:55;32.43;;;18.13;;
8500;SDS011;4288;48.484;10.024;2023-02-10T11:49:26;38.70;;;18.67;;
8500;SDS011;4288;48.484;10.024;2023-02-10T11:51:56;35.50;;;19.20;;
8500;SDS011;4288;48.484;10.024;2023-02-10T11:54:25;31.07;;;16.20;;
8500;SDS011;4288;48.484;10.024;2023-02-10T11:57:02;30.70;;;17.50;;
8500;SDS011;4288;48.484;10.024;2023-02-10T12:00:03;36.10;;;18.43;;
8500;SDS011;4288;48.484;10.024;2023-02-10T12:06:05;30.23;;;16.30;;
8500;SDS011;4288;48.484;10.024;2023-02-10T12:08:41;32.87;;;15.70;;
8500;SDS011;4288;48.484;10.024;2023-02-10T12:11:24;32.20;;;16.23;;
8500;SDS011;4288;48.484;10.024;2023-02-10T12:14:01;32.07;;;17.20;;
8500;SDS011;4288;48.484;10.024;2023-02-10T12:16:48;37.47;;;16.77;;
8500;SDS011;4288;48.484;10.024;2023-02-10T12:19:26;35.80;;;16.70;;
8500;SDS011;4288;48.484;10.024;2023-02-10T12:22:05;27.70;;;15.17;;
8500;SDS011;4288;48.484;10.024;2023-02-10T12:24:52;30.80;;;15.43;;
8500;SDS011;4288;48.484;10.024;2023-02-10T12:27:40;34.30;;;16.30;;
8500;SDS011;4288;48.484;10.024;2023-02-10T12:30:20;31.73;;;18.13;;
8500;SDS011;4288;48.484;10.024;2023-02-10T12:33:02;38.57;;;18.57;;
8500;SDS011;4288;48.484;10.024;2023-02-10T12:35:49;35.00;;;16.70;;
8500;SDS011;4288;48.484;10.024;2023-02-10T12:38:30;31.20;;;15.60;;
8500;SDS011;4288;48.484;10.024;2023-02-10T12:41:16;33.00;;;18.80;;
8500;SDS011;4288;48.484;10.024;2023-02-10T12:44:02;27.90;;;15.67;;
8500;SDS011;4288;48.484;10.024;2023-02-10T12:46:54;29.30;;;15.63;;
8500;SDS011;4288;48.484;10.024;2023-02-10T12:49:38;35.80;;;15.80;;
8500;SDS011;4288;48.484;10.024;2023-02-10T12:52:19;38.50;;;17.13;;
8500;SDS011;4288;48.484;10.024;2023-02-10T12:54:53;39.43;;;17.70;;
8500;SDS011;4288;48.484;10.024;2023-02-10T12:57:28;35.23;;;17.03;;
8500;SDS011;4288;48.484;10.024;2023-02-10T13:00:04;41.07;;;16.73;;
8500;SDS011;4288;48.484;10.024;2023-02-10T13:02:40;38.17;;;19.17;;
8500;SDS011;4288;48.484;10.024;2023-02-10T13:05:14;30.27;;;15.97;;
8500;SDS011;4288;48.484;10.024;2023-02-10T13:07:48;32.77;;;17.67;;
8500;SDS011;4288;48.484;10.024;2023-02-10T13:10:20;34.70;;;18.50;;
8500;SDS011;4288;48.484;10.024;2023-02-10T13:12:56;42.27;;;19.50;;
8500;SDS011;4288;48.484;10.024;2023-02-10T13:15:29;37.80;;;18.63;;
8500;SDS011;4288;48.484;10.024;2023-02-10T13:18:04;33.93;;;17.90;;
8500;SDS011;4288;48.484;10.024;2023-02-10T13:20:48;35.60;;;18.50;;
8500;SDS011;4288;48.484;10.024;2023-02-10T13:23:24;33.00;;;16.80;;
8500;SDS011;4288;48.484;10.024;2023-02-10T13:26:02;33.03;;;17.40;;
8500;SDS011;4288;48.484;10.024;2023-02-10T13:29:08;38.20;;;18.83;;
8500;SDS011;4288;48.484;10.024;2023-02-10T13:31:52;36.27;;;18.43;;
8500;SDS011;4288;48.484;10.024;2023-02-10T13:34:36;37.70;;;18.50;;
8500;SDS011;4288;48.484;10.024;2023-02-10T13:37:12;38.13;;;18.97;;
8500;SDS011;4288;48.484;10.024;2023-02-10T13:39:48;31.30;;;16.17;;
8500;SDS011;4288;48.484;10.024;2023-02-10T13:42:21;33.10;;;17.77;;
8500;SDS011;4288;48.484;10.024;2023-02-10T13:44:58;33.13;;;18.00;;
8500;SDS011;4288;48.484;10.024;2023-02-10T13:47:31;31.70;;;17.03;;
8500;SDS011;4288;48.484;10.024;2023-02-10T13:50:04;30.43;;;17.07;;
8500;SDS011;4288;48.484;10.024;2023-02-10T13:52:50;42.57;;;18.60;;
8500;SDS011;4288;48.484;10.024;2023-02-10T13:55:40;36.27;;;18.07;;
8500;SDS011;4288;48.484;10.024;2023-02-10T13:58:18;30.17;;;16.90;;
8500;SDS011;4288;48.484;10.024;2023-02-10T14:00:56;33.63;;;17.83;;
8500;SDS011;4288;48.484;10.024;2023-02-10T14:03:24;43.60;;;17.60;;
8500;SDS011;4288;48.484;10.024;2023-02-10T14:05:54;34.20;;;18.60;;
8500;SDS011;4288;48.484;10.024;2023-02-10T14:08:29;35.90;;;17.60;;
8500;SDS011;4288;48.484;10.024;2023-02-10T14:11:01;36.77;;;16.93;;
8500;SDS011;4288;48.484;10.024;2023-02-10T14:13:32;42.50;;;16.97;;
8500;SDS011;4288;48.484;10.024;2023-02-10T14:16:02;32.97;;;18.33;;
8500;SDS011;4288;48.484;10.024;2023-02-10T14:18:33;28.40;;;14.30;;
8500;SDS011;4288;48.484;10.024;2023-02-10T14:21:02;29.97;;;17.13;;
8500;SDS011;4288;48.484;10.024;2023-02-10T14:23:34;31.70;;;15.30;;
8500;SDS011;4288;48.484;10.024;2023-02-10T14:26:05;26.47;;;16.17;;
8500;SDS011;4288;48.484;10.024;2023-02-10T14:28:40;28.97;;;16.40;;
8500;SDS011;4288;48.484;10.024;2023-02-10T14:31:15;35.17;;;17.40;;
8500;SDS011;4288;48.484;10.024;2023-02-10T14:33:51;31.17;;;16.73;;
8500;SDS011;4288;48.484;10.024;2023-02-10T14:36:19;31.43;;;16.73;;
8500;SDS011;4288;48.484;10.024;2023-02-10T14:38:50;35.00;;;15.97;;
8500;SDS011;4288;48.484;10.024;2023-02-10T14:41:19;30.50;;;15.97;;
8500;SDS011;4288;48.484;10.024;2023-02-10T14:43:47;29.17;;;14.83;;
8500;SDS011;4288;48.484;10.024;2023-02-10T14:46:17;38.83;;;16.63;;
8500;SDS011;4288;48.484;10.024;2023-02-10T14:48:47;40.60;;;16.30;;
8500;SDS011;4288;48.484;10.024;2023-02-10T14:51:19;34.13;;;16.73;;
8500;SDS011;4288;48.484;10.024;2023-02-10T14:53:50;29.17;;;14.20;;
8500;SDS011;4288;48.484;10.024;2023-02-10T14:56:18;24.40;;;13.97;;
8500;SDS011;4288;48.484;10.024;2023-02-10T14:58:48;30.70;;;14.63;;
8500;SDS011;4288;48.484;10.024;2023-02-10T15:01:16;28.90;;;14.00;;
8500;SDS011;4288;48.484;10.024;2023-02-10T15:03:50;29.70;;;14.60;;
8500;SDS011;4288;48.484;10.024;2023-02-10T15:06:18;33.77;;;17.07;;
8500;SDS011;4288;48.484;10.024;2023-02-10T15:08:50;23.70;;;13.73;;